Time;durP1;ratioP1;P1;durP2;ratioP2;P2;SDS_P1;SDS_P2;PMS_P1;PMS_P2;Temp;Humidity;BMP_temperature;BMP_pressure;BME280_temperature;BME280_humidity;BME280_pressure;Samples;Min_cycle;Max_cycle;Signal;HPM_P1;HPM_P2
2022/06/20 00:01:10;;;;;;;10.70;5.38;;;14.80;99.90;;;;;;5050076;28;20025;-68
2022/06/20 00:03:46;;;;;;;14.43;5.78;;;14.80;99.90;;;;;;5051945;28;20021;-67
2022/06/20 00:06:15;;;;;;;10.85;5.50;;;14.80;99.90;;;;;;5036374;28;20068;-70
2022/06/20 00:08:43;;;;;;;13.05;6.85;;;14.90;99.90;;;;;;5020344;28;20025;-72
2022/06/20 00:11:21;;;;;;;10.73;5.68;;;14.90;99.90;;;;;;5030268;28;20501;-70
2022/06/20 00:13:52;;;;;;;9.98;4.82;;;14.90;99.90;;;;;;5035460;28;20051;-71
2022/06/20 00:16:20;;;;;;;10.82;5.65;;;15.00;99.90;;;;;;5041298;28;20053;-75
2022/06/20 00:18:49;;;;;;;13.43;6.35;;;15.10;99.90;;;;;;5034953;28;20389;-74
2022/06/20 00:21:21;;;;;;;16.67;6.47;;;15.10;99.90;;;;;;5066357;28;20095;-70
2022/06/20 00:23:49;;;;;;;9.07;5.28;;;15.20;99.90;;;;;;5049225;28;20025;-74
2022/06/20 00:26:17;;;;;;;11.65;5.55;;;15.30;99.90;;;;;;5050810;28;20037;-69
2022/06/20 00:28:45;;;;;;;9.10;5.28;;;15.40;99.90;;;;;;5048613;28;20086;-70
2022/06/20 00:31:13;;;;;;;11.93;6.43;;;15.40;99.90;;;;;;5040219;28;20056;-71
2022/06/20 00:33:41;;;;;;;9.40;4.30;;;15.60;99.90;;;;;;5030831;28;20025;-67
2022/06/20 00:36:08;;;;;;;11.05;4.68;;;15.60;99.90;;;;;;5035343;28;20107;-69
2022/06/20 00:38:36;;;;;;;13.07;5.00;;;15.70;99.90;;;;;;5030050;28;20156;-72
2022/06/20 00:41:20;;;;;;;14.65;6.47;;;15.80;99.90;;;;;;5028791;28;20036;-68
2022/06/20 00:43:50;;;;;;;8.40;4.03;;;15.90;99.90;;;;;;5040035;28;20033;-70
2022/06/20 00:46:32;;;;;;;11.40;5.72;;;16.00;99.90;;;;;;5050715;28;20051;-74
2022/06/20 00:49:14;;;;;;;11.95;4.00;;;16.10;99.90;;;;;;5049618;28;20078;-73
2022/06/20 00:52:03;;;;;;;8.63;3.40;;;16.20;99.90;;;;;;5042746;28;20028;-74
2022/06/20 00:54:42;;;;;;;9.25;2.88;;;16.30;99.90;;;;;;5037310;28;20044;-71
2022/06/20 00:57:35;;;;;;;7.65;2.60;;;16.40;99.90;;;;;;5049598;28;20017;-70
2022/06/20 01:00:10;;;;;;;7.05;2.75;;;16.50;99.90;;;;;;5030580;28;20494;-71
2022/06/20 01:02:45;;;;;;;8.98;2.90;;;16.60;99.90;;;;;;5049058;28;20067;-68
2022/06/20 01:05:23;;;;;;;12.77;2.67;;;16.70;99.90;;;;;;5028682;28;20017;-69
2022/06/20 01:08:05;;;;;;;10.73;2.60;;;16.80;99.90;;;;;;5038886;28;20055;-71
2022/06/20 01:10:47;;;;;;;10.35;2.38;;;16.90;99.90;;;;;;5050202;28;20389;-67
2022/06/20 01:13:18;;;;;;;8.00;2.73;;;17.00;99.90;;;;;;5050182;28;20025;-68
2022/06/20 01:15:48;;;;;;;7.78;1.90;;;17.10;99.90;;;;;;5048762;28;20096;-67
2022/06/20 01:18:26;;;;;;;8.65;2.10;;;17.10;99.90;;;;;;5050632;28;20029;-68
2022/06/20 01:20:55;;;;;;;8.18;1.90;;;17.20;99.90;;;;;;5051851;28;20029;-69
2022/06/20 01:23:41;;;;;;;9.05;2.28;;;17.30;99.90;;;;;;5053818;28;20622;-67
2022/06/20 01:26:28;;;;;;;8.93;2.35;;;17.40;99.90;;;;;;5051330;28;20626;-69
2022/06/20 01:29:00;;;;;;;10.13;2.90;;;17.30;99.90;;;;;;5034671;28;20077;-73
2022/06/20 01:31:31;;;;;;;7.57;3.73;;;17.30;99.90;;;;;;5037296;28;20405;-67
2022/06/20 01:34:02;;;;;;;7.13;3.50;;;17.20;99.90;;;;;;5047352;28;20035;-73
2022/06/20 01:39:19;;;;;;;7.13;2.20;;;17.00;99.90;;;;;;5051663;28;20082;-72
2022/06/20 01:44:39;;;;;;;5.07;1.50;;;16.70;99.90;;;;;;5052093;28;20512;-74
2022/06/20 01:47:06;;;;;;;6.15;1.83;;;16.70;99.90;;;;;;5051654;28;20056;-70
2022/06/20 01:49:35;;;;;;;8.35;1.90;;;16.70;99.90;;;;;;5047984;28;20466;-70
2022/06/20 01:52:14;;;;;;;4.80;1.33;;;16.80;99.90;;;;;;5031680;28;20025;-70
2022/06/20 01:54:47;;;;;;;7.80;1.85;;;17.00;99.90;;;;;;5031410;28;20049;-71
2022/06/20 01:57:16;;;;;;;9.32;3.45;;;17.00;99.90;;;;;;5048580;28;20021;-66
2022/06/20 01:59:57;;;;;;;4.78;1.90;;;17.00;99.90;;;;;;5053124;28;20021;-71
2022/06/20 02:02:24;;;;;;;6.45;2.10;;;17.10;99.90;;;;;;5047691;28;20523;-74
2022/06/20 02:04:52;;;;;;;12.80;3.95;;;17.10;99.90;;;;;;5052989;28;20039;-77
2022/06/20 02:07:20;;;;;;;6.53;3.10;;;17.20;99.90;;;;;;5013142;28;20422;-74
2022/06/20 02:09:48;;;;;;;12.50;3.38;;;17.30;99.90;;;;;;5051287;28;20111;-79
2022/06/20 02:12:17;;;;;;;8.98;1.95;;;17.30;99.90;;;;;;5052910;28;20087;-74
2022/06/20 02:14:49;;;;;;;10.63;2.17;;;17.30;99.90;;;;;;5043004;28;20022;-75
2022/06/20 02:17:48;;;;;;;9.77;2.47;;;17.30;99.90;;;;;;5032925;28;20087;-76
2022/06/20 02:20:22;;;;;;;7.72;1.90;;;17.30;99.90;;;;;;5048793;28;20064;-75
2022/06/20 02:22:51;;;;;;;8.32;2.67;;;17.30;99.90;;;;;;5066653;28;20104;-73
2022/06/20 02:25:23;;;;;;;10.32;2.47;;;17.40;99.90;;;;;;5052735;28;20066;-76
2022/06/20 02:28:12;;;;;;;7.07;2.42;;;17.30;99.90;;;;;;5051751;28;20028;-72
2022/06/20 02:30:40;;;;;;;4.72;1.40;;;17.30;99.90;;;;;;5041185;28;20144;-73
2022/06/20 02:33:23;;;;;;;6.90;1.80;;;17.40;99.90;;;;;;5045565;28;20025;-68
2022/06/20 02:35:50;;;;;;;;;;;17.50;99.90;;;;;;5048109;28;20025;-70
2022/06/20 02:38:18;;;;;;;6.95;2.63;;;17.60;99.90;;;;;;5028592;28;19916;-67
2022/06/20 02:40:45;;;;;;;6.57;1.73;;;17.60;99.90;;;;;;5038440;28;20452;-68
2022/06/20 02:43:36;;;;;;;11.57;2.35;;;17.60;99.90;;;;;;5037005;28;20100;-71
2022/06/20 02:46:09;;;;;;;8.18;1.60;;;17.70;99.90;;;;;;5050722;28;20044;-68
2022/06/20 02:48:38;;;;;;;10.20;2.22;;;17.70;99.90;;;;;;5051547;28;20171;-69
2022/06/20 02:51:08;;;;;;;7.40;2.38;;;17.70;99.90;;;;;;5052039;28;20032;-67
2022/06/20 02:53:56;;;;;;;10.40;2.80;;;17.70;99.90;;;;;;5050761;28;20473;-67
2022/06/20 02:56:28;;;;;;;6.85;1.65;;;17.80;99.90;;;;;;5050311;28;20057;-71
2022/06/20 02:59:00;;;;;;;7.90;1.97;;;17.80;99.90;;;;;;5051704;28;20017;-71
2022/06/20 03:02:01;;;;;;;14.32;2.78;;;17.80;99.90;;;;;;5051989;28;20258;-70
2022/06/20 03:04:32;;;;;;;9.02;2.78;;;17.80;99.90;;;;;;5030172;28;20036;-70
2022/06/20 03:07:14;;;;;;;7.43;2.20;;;17.60;99.90;;;;;;5038667;28;20072;-69
2022/06/20 03:09:42;;;;;;;;;;;17.40;99.90;;;;;;5047370;28;20021;-71
2022/06/20 03:12:11;;;;;;;12.80;3.40;;;17.20;99.90;;;;;;5035597;28;19962;-72
2022/06/20 03:14:54;;;;;;;10.75;2.45;;;17.00;99.90;;;;;;5043774;28;20100;-70
2022/06/20 03:17:23;;;;;;;8.30;2.38;;;16.90;99.90;;;;;;5049797;28;20394;-68
2022/06/20 03:19:56;;;;;;;9.02;1.95;;;16.70;99.90;;;;;;5049578;28;20489;-72
2022/06/20 03:22:33;;;;;;;10.05;1.58;;;16.70;99.90;;;;;;5028315;28;20025;-72
2022/06/20 03:25:01;;;;;;;5.82;1.42;;;16.70;99.90;;;;;;5043463;28;20428;-74
2022/06/20 03:27:31;;;;;;;8.85;1.77;;;16.70;99.90;;;;;;5049352;28;20037;-69
2022/06/20 03:30:19;;;;;;;8.80;2.15;;;16.70;99.90;;;;;;5051180;28;20024;-70
2022/06/20 03:32:46;;;;;;;8.93;2.03;;;16.80;99.90;;;;;;5049922;28;20021;-70
2022/06/20 03:35:14;;;;;;;14.38;3.00;;;16.70;99.90;;;;;;5051259;28;20350;-69
2022/06/20 03:37:41;;;;;;;7.60;2.03;;;16.80;99.90;;;;;;5049188;28;20115;-72
2022/06/20 03:40:09;;;;;;;13.15;2.95;;;16.80;99.90;;;;;;5043026;28;20492;-69
2022/06/20 03:42:36;;;;;;;8.18;2.10;;;16.90;99.90;;;;;;5031608;28;20025;-72
2022/06/20 03:45:07;;;;;;;9.88;1.92;;;17.00;99.90;;;;;;5043690;28;20017;-67
2022/06/20 03:48:00;;;;;;;8.43;2.22;;;17.00;99.90;;;;;;5034206;28;20036;-68
2022/06/20 03:50:51;;;;;;;5.97;1.67;;;17.10;99.90;;;;;;5029203;28;20034;-69
2022/06/20 03:53:28;;;;;;;10.63;1.88;;;17.20;99.90;;;;;;5026211;28;20034;-72
2022/06/20 03:56:18;;;;;;;8.65;2.60;;;17.20;99.90;;;;;;5026199;28;20033;-73
2022/06/20 03:59:08;;;;;;;8.57;2.35;;;17.40;99.90;;;;;;5051726;28;20061;-74
2022/06/20 04:01:50;;;;;;;12.05;2.85;;;17.40;99.90;;;;;;5021423;28;20024;-71
2022/06/20 04:04:31;;;;;;;13.20;2.60;;;17.50;99.90;;;;;;5062048;28;20064;-71
2022/06/20 04:07:04;;;;;;;9.88;2.00;;;17.70;99.90;;;;;;5042520;28;20041;-71
2022/06/20 04:12:44;;;;;;;13.02;2.17;;;17.90;99.90;;;;;;5059945;28;20146;-74
2022/06/20 04:15:49;;;;;;;8.38;1.85;;;18.00;99.90;;;;;;5047273;28;20489;-75
2022/06/20 04:18:43;;;;;;;7.28;2.15;;;18.00;99.90;;;;;;5041063;28;20053;-75
2022/06/20 04:21:20;;;;;;;11.25;2.63;;;18.00;99.90;;;;;;5039366;28;20029;-71
2022/06/20 04:24:15;;;;;;;11.07;2.60;;;17.90;99.90;;;;;;5033706;28;20159;-73
2022/06/20 04:26:45;;;;;;;13.73;2.30;;;17.90;99.90;;;;;;5050276;28;20509;-70
2022/06/20 04:29:16;;;;;;;10.90;2.47;;;17.90;99.90;;;;;;5049676;28;20013;-70
2022/06/20 04:31:47;;;;;;;10.45;2.28;;;17.90;99.90;;;;;;5029935;28;20021;-73
2022/06/20 04:35:09;;;;;;;11.88;2.20;;;17.80;99.90;;;;;;5042680;28;20388;-75
2022/06/20 04:37:55;;;;;;;13.52;2.17;;;17.70;99.90;;;;;;5006824;28;20038;-73
2022/06/20 04:40:27;;;;;;;8.57;2.38;;;17.70;99.90;;;;;;5023745;28;20116;-71
2022/06/20 04:43:33;;;;;;;10.10;2.00;;;17.60;99.90;;;;;;5035613;28;20021;-70
2022/06/20 04:46:13;;;;;;;11.95;3.00;;;17.50;99.90;;;;;;5039356;28;20029;-72
2022/06/20 04:48:44;;;;;;;11.40;2.33;;;17.40;99.90;;;;;;5050375;28;20029;-73
2022/06/20 04:51:16;;;;;;;12.00;1.85;;;17.30;99.90;;;;;;5030229;28;20121;-72
2022/06/20 04:53:46;;;;;;;12.95;2.50;;;17.30;99.90;;;;;;5034183;28;20040;-72
2022/06/20 04:56:25;;;;;;;16.77;1.92;;;17.20;99.90;;;;;;5047125;28;20041;-71
2022/06/20 04:59:35;;;;;;;9.20;2.50;;;17.20;99.90;;;;;;5052325;28;20036;-73
2022/06/20 05:02:07;;;;;;;8.77;2.03;;;17.10;99.90;;;;;;5030492;28;20485;-68
2022/06/20 05:04:40;;;;;;;9.27;2.55;;;17.10;99.90;;;;;;5046179;28;20033;-70
2022/06/20 05:07:18;;;;;;;9.70;2.33;;;17.10;99.90;;;;;;5053616;28;20040;-72
2022/06/20 05:10:17;;;;;;;8.18;2.63;;;17.20;99.90;;;;;;5049345;28;20099;-73
2022/06/20 05:13:00;;;;;;;12.50;2.55;;;17.30;99.90;;;;;;5043101;28;20040;-72
2022/06/20 05:15:37;;;;;;;;;;;17.30;99.90;;;;;;5054456;28;20536;-72
2022/06/20 05:18:30;;;;;;;8.65;1.92;;;17.40;99.90;;;;;;5043702;28;19940;-72
2022/06/20 05:21:09;;;;;;;11.65;2.75;;;17.50;99.90;;;;;;5035806;28;20025;-74
2022/06/20 05:23:47;;;;;;;6.78;1.75;;;17.40;99.90;;;;;;5052619;28;20021;-71
2022/06/20 05:26:28;;;;;;;6.30;1.20;;;17.30;99.90;;;;;;5054050;28;20033;-71
2022/06/20 05:29:00;;;;;;;9.18;2.00;;;17.20;99.90;;;;;;5052414;28;20477;-73
2022/06/20 05:31:42;;;;;;;10.85;2.20;;;17.10;99.90;;;;;;5059156;28;20489;-72
2022/06/20 05:34:31;;;;;;;8.80;1.55;;;17.10;99.90;;;;;;5052586;28;20027;-71
2022/06/20 05:37:25;;;;;;;9.05;2.08;;;17.00;99.90;;;;;;5047640;28;20029;-75
2022/06/20 05:40:02;;;;;;;8.07;1.65;;;17.00;99.90;;;;;;5038564;28;20109;-73
2022/06/20 05:42:30;;;;;;;9.23;3.10;;;17.00;99.90;;;;;;5031235;28;20454;-71
2022/06/20 05:44:57;;;;;;;7.35;1.65;;;17.00;99.90;;;;;;5031528;28;20025;-72
2022/06/20 05:47:36;;;;;;;7.25;1.17;;;17.00;99.90;;;;;;5045796;28;20532;-73
2022/06/20 05:50:06;;;;;;;9.50;1.70;;;17.00;99.90;;;;;;5035429;28;20034;-71
2022/06/20 05:52:35;;;;;;;8.18;2.17;;;16.90;99.90;;;;;;5040516;28;20021;-73
2022/06/20 05:55:17;;;;;;;9.50;2.13;;;16.90;99.90;;;;;;5050795;28;20440;-74
2022/06/20 05:57:50;;;;;;;8.70;1.67;;;16.90;99.90;;;;;;5051779;28;20389;-73
2022/06/20 06:00:33;;;;;;;7.78;1.33;;;17.00;99.90;;;;;;5039163;28;20029;-72
2022/06/20 06:03:10;;;;;;;;;;;17.20;99.90;;;;;;5051441;28;20547;-72
2022/06/20 06:05:40;;;;;;;8.27;2.03;;;17.20;99.90;;;;;;5052811;28;19917;-71
2022/06/20 06:08:18;;;;;;;11.38;3.42;;;17.30;99.90;;;;;;5052232;28;20036;-72
2022/06/20 06:11:16;;;;;;;6.60;1.70;;;17.40;99.90;;;;;;5029321;28;20018;-74
2022/06/20 06:13:49;;;;;;;9.55;2.08;;;17.40;99.90;;;;;;5031178;28;20104;-71
2022/06/20 06:16:51;;;;;;;7.82;2.13;;;17.40;99.90;;;;;;5031619;28;20026;-72
2022/06/20 06:19:21;;;;;;;6.50;1.80;;;17.40;99.90;;;;;;5043880;28;20080;-72
2022/06/20 06:21:50;;;;;;;7.95;2.10;;;17.40;99.90;;;;;;5030176;28;20104;-74
2022/06/20 06:24:21;;;;;;;7.85;2.28;;;17.40;99.90;;;;;;5050539;28;20033;-73
2022/06/20 06:26:50;;;;;;;6.70;1.95;;;17.40;99.90;;;;;;5051715;28;20037;-71
2022/06/20 06:29:26;;;;;;;9.55;2.90;;;17.40;99.90;;;;;;5061175;28;20025;-73
2022/06/20 06:32:00;;;;;;;9.70;3.05;;;17.20;99.90;;;;;;5047323;28;20022;-75
2022/06/20 06:34:54;;;;;;;6.57;1.70;;;17.20;99.90;;;;;;5035363;28;20024;-70
2022/06/20 06:37:28;;;;;;;8.93;2.08;;;17.10;99.90;;;;;;5052080;28;20021;-73
2022/06/20 06:39:59;;;;;;;8.50;1.77;;;17.10;99.90;;;;;;5040986;28;20025;-75
2022/06/20 06:42:26;;;;;;;14.30;2.80;;;17.00;99.90;;;;;;5052350;28;20480;-74
2022/06/20 06:44:55;;;;;;;6.68;3.58;;;16.90;99.90;;;;;;5052287;28;20033;-73
2022/06/20 06:47:41;;;;;;;14.20;3.80;;;16.80;99.90;;;;;;5050380;28;20520;-71
2022/06/20 06:50:40;;;;;;;8.10;2.00;;;16.70;99.90;;;;;;5052393;28;20391;-73
2022/06/20 06:53:17;;;;;;;7.82;2.47;;;16.60;99.90;;;;;;5031994;28;20032;-74
2022/06/20 06:55:53;;;;;;;14.52;5.18;;;16.60;99.90;;;;;;5046935;28;20049;-75
2022/06/20 06:58:27;;;;;;;15.80;4.70;;;16.40;99.90;;;;;;5047489;28;20025;-74
2022/06/20 07:01:08;;;;;;;9.75;3.20;;;16.40;99.90;;;;;;5032427;28;20030;-75
2022/06/20 07:03:45;;;;;;;7.75;2.97;;;16.20;99.90;;;;;;5031772;28;20021;-72
2022/06/20 07:06:21;;;;;;;8.18;3.17;;;16.20;99.90;;;;;;5030971;28;20033;-73
2022/06/20 07:08:59;;;;;;;9.60;2.60;;;16.00;99.90;;;;;;5029556;28;20026;-75
2022/06/20 07:11:27;;;;;;;9.93;3.67;;;15.90;99.90;;;;;;5039087;28;20026;-73
2022/06/20 07:14:02;;;;;;;8.60;2.85;;;15.70;99.90;;;;;;5031952;28;20500;-71
2022/06/20 07:16:40;;;;;;;8.50;2.90;;;15.60;99.90;;;;;;5039931;28;20025;-71
2022/06/20 07:19:08;;;;;;;12.32;3.50;;;15.50;99.90;;;;;;5017451;28;20029;-73
2022/06/20 07:21:39;;;;;;;8.85;3.00;;;15.40;99.90;;;;;;5032687;28;20049;-76
2022/06/20 07:24:23;;;;;;;11.45;3.20;;;15.30;99.90;;;;;;5043479;28;20107;-73
2022/06/20 07:27:08;;;;;;;13.27;4.30;;;15.30;99.90;;;;;;5050387;28;20037;-73
2022/06/20 07:29:44;;;;;;;12.68;4.15;;;15.10;99.90;;;;;;5040186;28;20026;-72
2022/06/20 07:32:46;;;;;;;11.07;4.22;;;15.10;99.90;;;;;;5049839;28;20036;-72
2022/06/20 07:35:19;;;;;;;19.15;8.82;;;14.90;99.90;;;;;;5044719;28;20017;-75
2022/06/20 07:38:14;;;;;;;28.27;11.35;;;14.80;99.90;;;;;;5050731;28;20020;-69
2022/06/20 07:40:55;;;;;;;14.95;7.07;;;14.80;99.90;;;;;;5030766;28;20029;-69
2022/06/20 07:43:27;;;;;;;18.52;6.20;;;14.60;99.90;;;;;;5030601;28;20028;-70
2022/06/20 07:45:59;;;;;;;16.02;4.97;;;14.50;99.90;;;;;;5030454;28;20061;-69
2022/06/20 07:48:37;;;;;;;9.77;4.00;;;14.40;99.90;;;;;;5043289;28;20086;-68
2022/06/20 07:51:14;;;;;;;13.95;3.95;;;14.30;99.90;;;;;;5038363;28;20090;-70
2022/06/20 07:53:54;;;;;;;15.02;3.70;;;14.30;99.90;;;;;;5033920;28;20131;-74
2022/06/20 07:56:39;;;;;;;15.43;4.00;;;14.20;99.90;;;;;;5046166;28;20035;-69
2022/06/20 07:59:17;;;;;;;13.65;5.07;;;14.10;99.90;;;;;;5036115;28;20025;-73
2022/06/20 08:01:56;;;;;;;15.35;3.85;;;14.10;99.90;;;;;;5031565;28;20025;-72
2022/06/20 08:04:31;;;;;;;11.48;4.65;;;14.10;99.90;;;;;;5030958;28;20524;-69
2022/06/20 08:07:02;;;;;;;15.98;4.40;;;14.00;99.90;;;;;;5029265;28;20041;-68
2022/06/20 08:09:51;;;;;;;13.30;3.53;;;14.00;99.90;;;;;;5029470;28;20026;-72
2022/06/20 08:12:28;;;;;;;11.40;4.75;;;13.90;99.90;;;;;;5029869;28;20052;-74
2022/06/20 08:14:59;;;;;;;10.23;3.65;;;13.90;99.90;;;;;;5030700;28;20091;-71
2022/06/20 08:17:29;;;;;;;12.75;3.25;;;13.90;99.90;;;;;;5030201;28;20058;-69
2022/06/20 08:19:58;;;;;;;9.48;4.03;;;13.90;99.90;;;;;;5030058;28;20026;-72
2022/06/20 08:22:34;;;;;;;11.00;4.75;;;13.80;99.90;;;;;;5030923;28;20508;-70
2022/06/20 08:25:17;;;;;;;12.57;4.93;;;13.80;99.90;;;;;;5031399;28;20429;-72
2022/06/20 08:27:49;;;;;;;12.85;5.97;;;13.80;99.90;;;;;;5034096;28;20116;-73
2022/06/20 08:30:34;;;;;;;12.93;6.53;;;13.80;99.90;;;;;;5034350;28;20102;-73
2022/06/20 08:33:26;;;;;;;13.27;6.75;;;13.90;99.90;;;;;;5034785;28;20478;-71
2022/06/20 08:36:03;;;;;;;15.73;7.85;;;13.90;99.90;;;;;;5033853;28;20030;-72
2022/06/20 08:38:56;;;;;;;12.77;5.85;;;13.90;99.90;;;;;;5049991;28;20119;-73
2022/06/20 08:41:43;;;;;;;16.70;7.20;;;14.00;99.90;;;;;;5015139;28;20352;-71
2022/06/20 08:44:39;;;;;;;13.73;6.03;;;14.00;99.90;;;;;;5027677;28;20421;-70
2022/06/20 08:47:36;;;;;;;10.20;5.80;;;14.10;99.90;;;;;;5034591;28;20076;-71
2022/06/20 08:50:18;;;;;;;10.40;4.57;;;14.10;99.90;;;;;;5033662;28;20088;-72
2022/06/20 08:53:24;;;;;;;15.20;5.85;;;14.10;99.90;;;;;;5032862;28;20509;-74
2022/06/20 08:55:58;;;;;;;9.75;4.60;;;14.20;99.90;;;;;;4992505;28;20042;-72
2022/06/20 08:58:36;;;;;;;7.00;4.35;;;14.20;99.90;;;;;;5028139;28;20489;-74
2022/06/20 09:01:08;;;;;;;15.60;5.03;;;14.30;99.90;;;;;;5014738;28;20501;-71
2022/06/20 09:03:46;;;;;;;13.65;5.65;;;14.30;99.90;;;;;;5026896;28;20068;-71
2022/06/20 09:06:38;;;;;;;12.60;5.82;;;14.30;99.90;;;;;;5032738;28;20034;-66
2022/06/20 09:09:30;;;;;;;11.40;5.93;;;14.40;99.90;;;;;;5034350;28;20025;-69
2022/06/20 09:12:22;;;;;;;13.27;4.90;;;14.40;99.90;;;;;;5034650;28;20057;-69
2022/06/20 09:15:28;;;;;;;13.75;5.50;;;14.40;99.90;;;;;;5014413;28;20025;-67
2022/06/20 09:18:16;;;;;;;11.93;4.57;;;14.40;99.90;;;;;;5013564;28;20474;-70
2022/06/20 09:21:12;;;;;;;13.18;5.80;;;14.40;99.90;;;;;;5031699;28;20594;-71
2022/06/20 09:23:59;;;;;;;12.23;5.00;;;14.30;99.90;;;;;;5033696;28;20029;-73
2022/06/20 09:26:34;;;;;;;17.70;5.25;;;14.30;99.90;;;;;;5033984;28;20060;-72
2022/06/20 09:29:33;;;;;;;8.07;5.03;;;14.20;99.90;;;;;;5049126;28;20103;-70
2022/06/20 09:32:20;;;;;;;14.60;6.13;;;14.20;99.90;;;;;;5033341;28;20021;-70
2022/06/20 09:35:12;;;;;;;13.98;8.40;;;14.20;99.90;;;;;;5013661;28;20029;-71
2022/06/20 09:38:06;;;;;;;17.98;12.05;;;14.20;99.90;;;;;;5013233;28;20101;-73
2022/06/20 09:40:46;;;;;;;17.20;11.35;;;14.20;99.90;;;;;;5030439;28;20144;-71
2022/06/20 09:43:41;;;;;;;16.08;8.88;;;14.10;99.90;;;;;;5033446;28;20109;-73
2022/06/20 09:46:36;;;;;;;13.02;7.13;;;14.10;99.90;;;;;;5015012;28;20121;-69
2022/06/20 09:49:21;;;;;;;14.70;7.70;;;14.10;99.90;;;;;;5033318;28;20032;-69
2022/06/20 09:52:00;;;;;;;14.63;7.25;;;14.10;99.90;;;;;;5033067;28;20478;-67
2022/06/20 09:54:48;;;;;;;14.90;7.70;;;14.00;99.90;;;;;;5033066;28;20049;-70
2022/06/20 09:57:44;;;;;;;17.25;6.18;;;13.80;99.90;;;;;;5033118;28;20025;-68
2022/06/20 10:00:12;;;;;;;14.15;7.60;;;13.70;99.90;;;;;;5034759;28;20017;-70
2022/06/20 10:03:12;;;;;;;11.48;6.00;;;13.70;99.90;;;;;;5033465;28;20500;-67
2022/06/20 10:05:52;;;;;;;11.82;5.55;;;13.60;99.90;;;;;;5032438;28;20014;-68
2022/06/20 10:08:43;;;;;;;13.85;5.90;;;13.50;99.90;;;;;;5033903;28;20370;-68
2022/06/20 10:11:23;;;;;;;15.95;6.40;;;13.50;99.90;;;;;;5013258;28;20022;-71
2022/06/20 10:14:05;;;;;;;15.30;6.63;;;13.30;99.90;;;;;;5015965;28;20029;-69
2022/06/20 10:16:48;;;;;;;13.32;5.93;;;13.30;99.90;;;;;;5032709;28;20030;-68
2022/06/20 10:19:45;;;;;;;21.05;7.47;;;13.30;99.90;;;;;;5031918;28;20096;-68
2022/06/20 10:22:44;;;;;;;19.60;6.38;;;13.20;99.90;;;;;;5034351;28;20033;-71
2022/06/20 10:25:16;;;;;;;11.32;6.03;;;13.20;99.90;;;;;;5032569;28;20056;-73
2022/06/20 10:28:34;;;;;;;20.17;8.70;;;13.10;99.90;;;;;;5033213;28;20037;-69
2022/06/20 10:31:19;;;;;;;67.43;41.85;;;13.00;99.90;;;;;;4971539;28;20039;-71
2022/06/20 10:34:07;;;;;;;64.68;36.33;;;12.90;99.90;;;;;;5046648;28;20489;-74
2022/06/20 10:36:57;;;;;;;52.13;30.85;;;12.90;99.90;;;;;;5032740;28;20025;-67
2022/06/20 10:39:58;;;;;;;41.15;22.95;;;12.80;99.90;;;;;;5032110;28;20022;-67
2022/06/20 10:42:39;;;;;;;36.90;18.55;;;12.80;99.90;;;;;;5032778;28;20028;-68
2022/06/20 10:45:21;;;;;;;35.20;19.65;;;12.70;99.90;;;;;;5032691;28;20033;-69
2022/06/20 10:48:15;;;;;;;36.67;20.80;;;12.80;99.90;;;;;;5032584;28;20494;-70
2022/06/20 10:51:01;;;;;;;31.00;18.77;;;12.70;99.90;;;;;;5032343;28;20255;-74
2022/06/20 10:53:46;;;;;;;39.50;21.40;;;12.70;99.90;;;;;;5031819;28;20428;-71
2022/06/20 10:56:53;;;;;;;40.50;19.83;;;12.60;99.90;;;;;;5012153;28;20386;-68
2022/06/20 10:59:44;;;;;;;36.53;21.02;;;12.60;99.90;;;;;;5031027;28;20386;-67
2022/06/20 11:02:48;;;;;;;34.97;18.98;;;12.60;99.90;;;;;;5030771;28;20033;-71
2022/06/20 11:05:51;;;;;;;32.30;18.45;;;12.50;99.90;;;;;;5023323;28;20032;-71
2022/06/20 11:08:29;;;;;;;36.17;20.50;;;12.40;99.90;;;;;;5012914;28;20030;-68
2022/06/20 11:11:03;;;;;;;30.15;18.50;;;12.40;99.90;;;;;;5032328;28;20021;-72
2022/06/20 11:14:03;;;;;;;30.13;20.23;;;12.40;99.90;;;;;;5032236;28;20026;-67
2022/06/20 11:16:49;;;;;;;27.58;18.25;;;12.40;99.90;;;;;;5011397;28;20026;-73
2022/06/20 11:19:27;;;;;;;31.20;20.02;;;12.30;99.90;;;;;;5017201;28;20049;-71
2022/06/20 11:22:06;;;;;;;26.95;19.38;;;12.30;99.90;;;;;;5030941;28;20105;-69
2022/06/20 11:25:08;;;;;;;29.38;17.73;;;12.20;99.90;;;;;;5028197;28;20025;-70
2022/06/20 11:27:59;;;;;;;23.92;16.60;;;12.20;99.90;;;;;;4989709;28;20035;-70
2022/06/20 11:30:29;;;;;;;24.80;14.80;;;12.20;99.90;;;;;;5029756;28;20038;-69
2022/06/20 11:33:04;;;;;;;19.38;14.70;;;12.20;99.90;;;;;;5031463;28;20075;-70
2022/06/20 11:35:43;;;;;;;23.45;14.05;;;12.10;99.90;;;;;;5031144;28;20025;-67
2022/06/20 11:38:30;;;;;;;23.48;13.13;;;12.10;99.90;;;;;;5031278;28;20052;-67
2022/06/20 11:41:17;;;;;;;16.35;11.43;;;12.00;99.90;;;;;;5031377;28;20032;-68
2022/06/20 11:44:14;;;;;;;19.02;12.52;;;12.00;99.90;;;;;;5030779;28;20056;-69
2022/06/20 11:46:44;;;;;;;18.05;11.00;;;12.00;99.90;;;;;;5026328;28;20049;-69
2022/06/20 11:49:29;;;;;;;19.27;10.20;;;12.00;99.90;;;;;;5032930;28;20378;-72
2022/06/20 11:52:14;;;;;;;27.85;13.00;;;12.00;99.90;;;;;;5032790;28;20052;-68
2022/06/20 11:55:01;;;;;;;16.42;10.77;;;12.00;99.90;;;;;;5033071;28;20048;-72
2022/06/20 11:57:46;;;;;;;18.15;10.38;;;11.90;99.90;;;;;;5032873;28;20473;-72
2022/06/20 12:00:22;;;;;;;18.90;9.93;;;11.90;99.90;;;;;;5031778;28;20022;-68
2022/06/20 12:03:08;;;;;;;20.27;11.00;;;11.90;99.90;;;;;;5031990;28;20373;-66
2022/06/20 12:05:59;;;;;;;19.20;10.48;;;11.90;99.90;;;;;;5031325;28;20048;-74
2022/06/20 12:08:42;;;;;;;19.52;10.90;;;11.90;99.90;;;;;;5035831;28;20116;-70
2022/06/20 12:11:31;;;;;;;20.92;11.38;;;11.90;99.90;;;;;;5067094;28;20362;-69
2022/06/20 12:14:13;;;;;;;24.55;11.65;;;11.90;99.90;;;;;;5033842;28;20104;-73
2022/06/20 12:16:54;;;;;;;16.63;10.95;;;11.80;99.90;;;;;;5031330;28;20500;-68
2022/06/20 12:26:12;;;;;;;17.48;10.82;;;11.80;99.90;;;;;;5031288;28;20084;-72
2022/06/20 12:28:43;;;;;;;24.20;12.45;;;11.70;99.90;;;;;;5030844;28;20029;-70
2022/06/20 12:31:13;;;;;;;20.45;11.43;;;11.70;99.90;;;;;;5029924;28;20033;-72
2022/06/20 12:33:45;;;;;;;21.77;12.43;;;11.60;99.90;;;;;;5030817;28;20022;-68
2022/06/20 12:36:40;;;;;;;21.75;10.95;;;11.60;99.90;;;;;;5031308;28;20044;-68
2022/06/20 12:39:43;;;;;;;17.00;10.13;;;11.50;99.90;;;;;;5030951;28;20025;-68
2022/06/20 12:42:48;;;;;;;17.10;12.15;;;11.60;99.90;;;;;;5031006;28;20017;-68
2022/06/20 12:45:47;;;;;;;18.05;12.32;;;11.50;99.90;;;;;;5022530;28;20029;-74
2022/06/20 12:48:43;;;;;;;24.20;13.13;;;11.50;99.90;;;;;;5009830;28;20160;-70
2022/06/20 12:51:35;;;;;;;19.27;12.30;;;11.50;99.90;;;;;;5030249;28;20078;-74
2022/06/20 12:54:06;;;;;;;23.70;12.02;;;11.50;99.90;;;;;;5031445;28;20559;-74
2022/06/20 12:56:57;;;;;;;18.65;12.43;;;11.50;99.90;;;;;;5041840;28;20025;-73
2022/06/20 12:59:39;;;;;;;16.70;11.73;;;11.40;99.90;;;;;;5050420;28;20120;-69
2022/06/20 13:02:19;;;;;;;17.33;11.70;;;11.40;99.90;;;;;;5047833;28;20446;-69
2022/06/20 13:05:04;;;;;;;22.95;12.00;;;11.40;99.90;;;;;;5050042;28;20503;-70
2022/06/20 13:07:40;;;;;;;19.15;11.68;;;11.30;99.90;;;;;;5050300;28;20082;-68
2022/06/20 13:10:30;;;;;;;20.10;11.05;;;11.30;99.90;;;;;;5038722;28;20112;-69
2022/06/20 13:13:25;;;;;;;18.88;12.05;;;11.30;99.90;;;;;;5057910;28;20029;-70
2022/06/20 13:16:04;;;;;;;21.38;11.85;;;11.30;99.90;;;;;;5032481;28;20412;-69
2022/06/20 13:18:55;;;;;;;17.85;11.02;;;11.30;99.90;;;;;;5035452;28;20021;-73
2022/06/20 13:21:43;;;;;;;25.13;13.65;;;11.20;99.90;;;;;;5033251;28;20422;-68
2022/06/20 13:24:28;;;;;;;21.50;12.07;;;11.20;99.90;;;;;;5031786;28;20037;-68
2022/06/20 13:27:28;;;;;;;22.77;13.63;;;11.10;99.90;;;;;;5034370;28;20099;-67
2022/06/20 13:30:40;;;;;;;22.40;12.43;;;11.10;99.90;;;;;;5011408;28;20105;-68
2022/06/20 13:33:31;;;;;;;22.50;15.00;;;11.20;99.90;;;;;;5034370;28;20026;-69
2022/06/20 13:36:12;;;;;;;22.05;14.35;;;11.10;99.90;;;;;;5034120;28;20053;-68
2022/06/20 13:38:55;;;;;;;21.52;13.70;;;11.10;99.90;;;;;;5085660;28;20025;-69
2022/06/20 13:41:44;;;;;;;;;;;11.10;99.90;;;;;;5054276;28;20105;-70
2022/06/20 13:44:49;;;;;;;19.33;12.45;;;11.10;99.90;;;;;;5053655;28;19915;-68
2022/06/20 13:47:22;;;;;;;21.70;13.57;;;11.00;99.90;;;;;;5043698;28;20102;-66
2022/06/20 13:50:05;;;;;;;19.42;13.27;;;11.00;99.90;;;;;;5053800;28;20104;-68
2022/06/20 13:52:43;;;;;;;21.23;13.15;;;11.00;99.90;;;;;;5054080;28;20035;-68
2022/06/20 13:55:47;;;;;;;24.90;14.40;;;11.00;99.90;;;;;;5053863;28;20366;-69
2022/06/20 13:58:14;;;;;;;20.48;12.57;;;11.00;99.90;;;;;;5052841;28;20521;-67
2022/06/20 14:00:42;;;;;;;24.60;12.82;;;10.90;99.90;;;;;;5053765;28;20029;-70
2022/06/20 14:03:29;;;;;;;19.63;12.07;;;10.90;99.90;;;;;;5052814;28;20025;-68